CheckWX is a tool to help pilots better visualize weather data.  It is not intended as a substitute for an official pre-flight weather briefing.

17:26:28 UTC

KDAA TAF
Davison AAF Airport
Fort Belvoir, Virginia, USA
TAF KDAA 191700Z 1917/2023 VRB06KT 9999 SKC QNH3022INS TX23/1919Z TN12/2010Z

Sep-19@
17:00 UTC

Sep-19 @ 17:00 UTC

Sep-20@
23:00 UTC

Sep-20 @ 23:00 UTC

TAF KDAA 191700Z 1917/2023 VRB06KT 9999 SKC QNH3022INS TX23/1919Z TN12/2010Z
Wind
  • Variable at 6 KTS
Cloud Levels
  • Clear skies